Map

Track Data

SID SEASON NUMBER BASIN SUBBASIN NAME ISO_TIME NATURE LAT LON WMO_WIND WMO_PRES WMO_AGENCY TRACK_TYPE DIST2LAND LANDFALL IFLAG USA_AGENCY USA_ATCF_ID USA_LAT USA_LON USA_RECORD USA_STATUS USA_WIND USA_PRES USA_SSHS USA_R34_NE USA_R34_SE USA_R34_SW USA_R34_NW USA_R50_NE USA_R50_SE USA_R50_SW USA_R50_NW USA_R64_NE USA_R64_SE USA_R64_SW USA_R64_NW USA_POCI USA_ROCI USA_RMW USA_EYE TOKYO_LAT TOKYO_LON TOKYO_GRADE TOKYO_WIND TOKYO_PRES TOKYO_R50_DIR TOKYO_R50_LONG TOKYO_R50_SHORT TOKYO_R30_DIR TOKYO_R30_LONG TOKYO_R30_SHORT TOKYO_LAND CMA_LAT CMA_LON CMA_CAT CMA_WIND CMA_PRES HKO_LAT HKO_LON HKO_CAT HKO_WIND HKO_PRES NEWDELHI_LAT NEWDELHI_LON NEWDELHI_GRADE NEWDELHI_WIND NEWDELHI_PRES NEWDELHI_CI NEWDELHI_DP NEWDELHI_POCI REUNION_LAT REUNION_LON REUNION_TYPE REUNION_WIND REUNION_PRES REUNION_TNUM REUNION_CI REUNION_RMW REUNION_R34_NE REUNION_R34_SE REUNION_R34_SW REUNION_R34_NW REUNION_R50_NE REUNION_R50_SE REUNION_R50_SW REUNION_R50_NW REUNION_R64_NE REUNION_R64_SE REUNION_R64_SW REUNION_R64_NW BOM_LAT BOM_LON BOM_TYPE BOM_WIND BOM_PRES BOM_TNUM BOM_CI BOM_RMW BOM_R34_NE BOM_R34_SE BOM_R34_SW BOM_R34_NW BOM_R50_NE BOM_R50_SE BOM_R50_SW BOM_R50_NW BOM_R64_NE BOM_R64_SE BOM_R64_SW BOM_R64_NW BOM_ROCI BOM_POCI BOM_EYE BOM_POS_METHOD BOM_PRES_METHOD NADI_LAT NADI_LON NADI_CAT NADI_WIND NADI_PRES WELLINGTON_LAT WELLINGTON_LON WELLINGTON_WIND WELLINGTON_PRES DS824_LAT DS824_LON DS824_STAGE DS824_WIND DS824_PRES TD9636_LAT TD9636_LON TD9636_STAGE TD9636_WIND TD9636_PRES TD9635_LAT TD9635_LON TD9635_WIND TD9635_PRES TD9635_ROCI NEUMANN_LAT NEUMANN_LON NEUMANN_CLASS NEUMANN_WIND NEUMANN_PRES MLC_LAT MLC_LON MLC_CLASS MLC_WIND MLC_PRES USA_GUST BOM_GUST BOM_GUST_PER REUNION_GUST REUNION_GUST_PER USA_SEAHGT USA_SEARAD_NE USA_SEARAD_SE USA_SEARAD_SW USA_SEARAD_NW STORM_SPEED STORM_DIR
1932248N37313 1932 47 NA NA NOT_NAMED 1932-09-04 00:00:00 TS 36.8000 -47.2000 45 hurdat_atl main 1196 1183 O_____________ hurdat_atl AL051932 36.8000 -47.2000 TS 45 0 7 279
1932248N37313 1932 47 NA NA NOT_NAMED 1932-09-04 03:00:00 TS 36.8503 -47.6024 main 1173 1160 P_____________ AL051932 36.8503 -47.6024 TS 45 0 6 279
1932248N37313 1932 47 NA NA NOT_NAMED 1932-09-04 06:00:00 TS 36.9000 -48.0000 45 hurdat_atl main 1160 1149 O_____________ hurdat_atl AL051932 36.9000 -48.0000 TS 45 0 6 279
1932248N37313 1932 47 NA NA NOT_NAMED 1932-09-04 09:00:00 TS 36.9498 -48.3926 main 1149 1127 P_____________ AL051932 36.9498 -48.3926 TS 47 0 6 279
1932248N37313 1932 47 NA NA NOT_NAMED 1932-09-04 12:00:00 TS 37.0000 -48.8000 50 hurdat_atl main 1127 1117 O_____________ hurdat_atl AL051932 37.0000 -48.8000 TS 50 0 7 278
1932248N37313 1932 47 NA NA NOT_NAMED 1932-09-04 15:00:00 TS 37.0424 -49.2427 main 1117 1095 P_____________ AL051932 37.0424 -49.2427 TS 52 0 7 278
1932248N37313 1932 47 NA NA NOT_NAMED 1932-09-04 18:00:00 TS 37.1000 -49.7000 55 hurdat_atl main 1095 1076 O_____________ hurdat_atl AL051932 37.1000 -49.7000 TS 55 0 7 282
1932248N37313 1932 47 NA NA NOT_NAMED 1932-09-04 21:00:00 TS 37.1924 -50.1575 main 1074 1056 P_____________ AL051932 37.1924 -50.1575 TS 55 0 7 286
1932248N37313 1932 47 NA NA NOT_NAMED 1932-09-05 00:00:00 TS 37.3000 -50.6000 55 hurdat_atl main 1056 1039 O_____________ hurdat_atl AL051932 37.3000 -50.6000 TS 55 0 7 287
1932248N37313 1932 47 NA NA NOT_NAMED 1932-09-05 03:00:00 TS 37.3999 -51.0226 main 1039 1022 P_____________ AL051932 37.3999 -51.0226 TS 57 0 7 287
1932248N37313 1932 47 NA NA NOT_NAMED 1932-09-05 06:00:00 TS 37.5000 -51.4000 60 hurdat_atl main 1022 1008 O_____________ hurdat_atl AL051932 37.5000 -51.4000 TS 60 0 6 289
1932248N37313 1932 47 NA NA NOT_NAMED 1932-09-05 09:00:00 TS 37.5923 -51.7152 main 1008 994 P_____________ AL051932 37.5923 -51.7152 TS 60 0 5 293
1932248N37313 1932 47 NA NA NOT_NAMED 1932-09-05 12:00:00 TS 37.7000 -52.0000 60 hurdat_atl main 994 981 O_____________ hurdat_atl AL051932 37.7000 -52.0000 TS 60 0 5 298
1932248N37313 1932 47 NA NA NOT_NAMED 1932-09-05 15:00:00 TS 37.8349 -52.3001 main 981 957 P_____________ AL051932 37.8349 -52.3001 TS 57 0 6 302
1932248N37313 1932 47 NA NA NOT_NAMED 1932-09-05 18:00:00 TS 38.0000 -52.6000 55 hurdat_atl main 957 934 O_____________ hurdat_atl AL051932 38.0000 -52.6000 TS 55 0 6 307
1932248N37313 1932 47 NA NA NOT_NAMED 1932-09-05 21:00:00 TS 38.1849 -52.9002 main 934 911 P_____________ AL051932 38.1849 -52.9002 TS 55 0 6 310
1932248N37313 1932 47 NA NA NOT_NAMED 1932-09-06 00:00:00 TS 38.4000 -53.2000 55 hurdat_atl main 911 889 O_____________ hurdat_atl AL051932 38.4000 -53.2000 TS 55 0 7 312
1932248N37313 1932 47 NA NA NOT_NAMED 1932-09-06 03:00:00 TS 38.6351 -53.5298 main 889 856 P_____________ AL051932 38.6351 -53.5298 TS 52 0 7 317
1932248N37313 1932 47 NA NA NOT_NAMED 1932-09-06 06:00:00 TS 38.9000 -53.8000 50 hurdat_atl main 856 823 O_____________ hurdat_atl AL051932 38.9000 -53.8000 TS 50 0 6 329
1932248N37313 1932 47 NA NA NOT_NAMED 1932-09-06 09:00:00 TS 39.1774 -53.9526 main 823 790 P_____________ AL051932 39.1774 -53.9526 TS 50 0 6 346
1932248N37313 1932 47 NA NA NOT_NAMED 1932-09-06 12:00:00 TS 39.5000 -54.0000 50 hurdat_atl main 790 756 O_____________ hurdat_atl AL051932 39.5000 -54.0000 TS 50 0 7 357
1932248N37313 1932 47 NA NA NOT_NAMED 1932-09-06 15:00:00 TS 39.8699 -54.0021 main 745 700 P_____________ AL051932 39.8699 -54.0021 TS 47 0 8 6
1932248N37313 1932 47 NA NA NOT_NAMED 1932-09-06 18:00:00 TS 40.3000 -53.9000 45 hurdat_atl main 700 655 O_____________ hurdat_atl AL051932 40.3000 -53.9000 TS 45 0 9 15
1932248N37313 1932 47 NA NA NOT_NAMED 1932-09-06 21:00:00 TS 40.7775 -53.6876 main 644 589 P_____________ AL051932 40.7775 -53.6876 TS 42 0 11 21
1932248N37313 1932 47 NA NA NOT_NAMED 1932-09-07 00:00:00 TS 41.3000 -53.4000 40 hurdat_atl main 589 533 O_____________ hurdat_atl AL051932 41.3000 -53.4000 TS 40 0 11 22
1932248N37313 1932 47 NA NA NOT_NAMED 1932-09-07 03:00:00 TS 41.8424 -53.1219 main 533 467 P_____________ AL051932 41.8424 -53.1219 TS 37 0 12 22
1932248N37313 1932 47 NA NA NOT_NAMED 1932-09-07 06:00:00 TS 42.4000 -52.8000 35 hurdat_atl main 467 414 O_____________ hurdat_atl AL051932 42.4000 -52.8000 TS 35 0 12 25
1932248N37313 1932 47 NA NA NOT_NAMED 1932-09-07 09:00:00 TS 42.9423 -52.4291 main 415 357 P_____________ AL051932 42.9423 -52.4291 TS 32 -1 12 28
1932248N37313 1932 47 NA NA NOT_NAMED 1932-09-07 12:00:00 TS 43.5000 -52.0000 30 hurdat_atl main 357 307 O_____________ hurdat_atl AL051932 43.5000 -52.0000 TD 30 -1 13 30
1932248N37313 1932 47 NA NA NOT_NAMED 1932-09-07 15:00:00 TS 44.0905 -51.5174 main 307 271 P_____________ AL051932 44.0905 -51.5174 TD 30 -1 14 31
1932248N37313 1932 47 NA NA NOT_NAMED 1932-09-07 18:00:00 ET 44.7000 -51.0000 30 hurdat_atl main 271 O_____________ hurdat_atl AL051932 44.7000 -51.0000 EX 30 -4 14 31

About IBTrACS Database

This database is a web-friendly format of International Best Track Archive for Climate Stewardship (IBTrACS), a global best track data archive curated by NOAA dating back to 1842.

Updated: 2021-12-01